sensor_id;sensor_type;location;lat;lon;timestamp;P1;durP1;ratioP1;P2;durP2;ratioP2
3591;SDS011;1810;48.720;9.094;2023-02-15T00:02:09;640.35;;;601.85;;
3591;SDS011;1810;48.720;9.094;2023-02-15T00:04:38;630.97;;;595.38;;
3591;SDS011;1810;48.720;9.094;2023-02-15T00:07:18;460.25;;;432.77;;
3591;SDS011;1810;48.720;9.094;2023-02-15T00:09:47;611.40;;;574.50;;
3591;SDS011;1810;48.720;9.094;2023-02-15T00:12:16;599.30;;;563.15;;
3591;SDS011;1810;48.720;9.094;2023-02-15T00:14:44;556.47;;;523.65;;
3591;SDS011;1810;48.720;9.094;2023-02-15T00:17:12;530.75;;;498.65;;
3591;SDS011;1810;48.720;9.094;2023-02-15T00:19:41;606.30;;;569.53;;
3591;SDS011;1810;48.720;9.094;2023-02-15T00:22:09;500.27;;;470.48;;
3591;SDS011;1810;48.720;9.094;2023-02-15T00:24:39;601.47;;;565.55;;
3591;SDS011;1810;48.720;9.094;2023-02-15T00:27:07;566.53;;;533.30;;
3591;SDS011;1810;48.720;9.094;2023-02-15T00:29:36;593.33;;;557.00;;
3591;SDS011;1810;48.720;9.094;2023-02-15T00:32:04;514.97;;;484.73;;
3591;SDS011;1810;48.720;9.094;2023-02-15T00:34:33;577.88;;;543.10;;
3591;SDS011;1810;48.720;9.094;2023-02-15T00:37:01;499.17;;;468.92;;
3591;SDS011;1810;48.720;9.094;2023-02-15T00:39:30;521.28;;;489.38;;
3591;SDS011;1810;48.720;9.094;2023-02-15T00:41:59;571.20;;;536.20;;
3591;SDS011;1810;48.720;9.094;2023-02-15T00:44:28;550.15;;;516.38;;
3591;SDS011;1810;48.720;9.094;2023-02-15T00:46:56;634.30;;;596.03;;
3591;SDS011;1810;48.720;9.094;2023-02-15T00:49:25;611.00;;;574.10;;
3591;SDS011;1810;48.720;9.094;2023-02-15T00:51:53;489.52;;;460.42;;
3591;SDS011;1810;48.720;9.094;2023-02-15T00:54:21;604.85;;;567.78;;
3591;SDS011;1810;48.720;9.094;2023-02-15T00:56:50;386.65;;;364.35;;
3591;SDS011;1810;48.720;9.094;2023-02-15T00:59:20;514.30;;;482.33;;
3591;SDS011;1810;48.720;9.094;2023-02-15T01:01:48;345.85;;;325.80;;
3591;SDS011;1810;48.720;9.094;2023-02-15T01:04:16;313.77;;;295.85;;
3591;SDS011;1810;48.720;9.094;2023-02-15T01:06:45;427.17;;;401.75;;
3591;SDS011;1810;48.720;9.094;2023-02-15T01:09:13;431.73;;;405.95;;
3591;SDS011;1810;48.720;9.094;2023-02-15T01:11:42;479.98;;;449.75;;
3591;SDS011;1810;48.720;9.094;2023-02-15T01:14:10;644.80;;;606.08;;
3591;SDS011;1810;48.720;9.094;2023-02-15T01:16:40;456.85;;;429.13;;
3591;SDS011;1810;48.720;9.094;2023-02-15T01:19:09;621.65;;;583.78;;
3591;SDS011;1810;48.720;9.094;2023-02-15T01:21:37;305.42;;;287.90;;
3591;SDS011;1810;48.720;9.094;2023-02-15T01:24:10;552.83;;;519.03;;
3591;SDS011;1810;48.720;9.094;2023-02-15T01:26:40;417.33;;;391.75;;
3591;SDS011;1810;48.720;9.094;2023-02-15T01:29:08;486.80;;;457.55;;
3591;SDS011;1810;48.720;9.094;2023-02-15T01:31:36;487.23;;;457.70;;
3591;SDS011;1810;48.720;9.094;2023-02-15T01:34:07;374.65;;;353.08;;
3591;SDS011;1810;48.720;9.094;2023-02-15T01:36:35;434.48;;;408.60;;
3591;SDS011;1810;48.720;9.094;2023-02-15T01:39:04;467.88;;;439.48;;
3591;SDS011;1810;48.720;9.094;2023-02-15T01:41:33;418.48;;;393.40;;
3591;SDS011;1810;48.720;9.094;2023-02-15T01:44:02;475.77;;;446.40;;
3591;SDS011;1810;48.720;9.094;2023-02-15T01:46:47;372.15;;;350.75;;
3591;SDS011;1810;48.720;9.094;2023-02-15T01:49:21;621.35;;;583.78;;
3591;SDS011;1810;48.720;9.094;2023-02-15T01:51:52;340.48;;;320.70;;
3591;SDS011;1810;48.720;9.094;2023-02-15T01:54:22;453.98;;;425.75;;
3591;SDS011;1810;48.720;9.094;2023-02-15T01:56:53;418.13;;;392.83;;
3591;SDS011;1810;48.720;9.094;2023-02-15T01:59:25;296.52;;;279.60;;
3591;SDS011;1810;48.720;9.094;2023-02-15T02:01:54;435.35;;;409.40;;
3591;SDS011;1810;48.720;9.094;2023-02-15T02:04:26;667.50;;;626.60;;
3591;SDS011;1810;48.720;9.094;2023-02-15T02:06:58;392.50;;;368.65;;
3591;SDS011;1810;48.720;9.094;2023-02-15T02:09:27;484.52;;;455.30;;
3591;SDS011;1810;48.720;9.094;2023-02-15T02:11:56;504.48;;;473.73;;
3591;SDS011;1810;48.720;9.094;2023-02-15T02:14:24;363.90;;;342.42;;
3591;SDS011;1810;48.720;9.094;2023-02-15T02:16:56;322.73;;;304.33;;
3591;SDS011;1810;48.720;9.094;2023-02-15T02:19:37;325.42;;;306.75;;
3591;SDS011;1810;48.720;9.094;2023-02-15T02:22:34;255.48;;;241.25;;
3591;SDS011;1810;48.720;9.094;2023-02-15T02:25:29;520.75;;;488.33;;
3591;SDS011;1810;48.720;9.094;2023-02-15T02:28:09;253.35;;;239.43;;
3591;SDS011;1810;48.720;9.094;2023-02-15T02:33:42;340.92;;;321.33;;
3591;SDS011;1810;48.720;9.094;2023-02-15T02:36:18;237.48;;;224.43;;
3591;SDS011;1810;48.720;9.094;2023-02-15T02:38:55;310.75;;;292.63;;
3591;SDS011;1810;48.720;9.094;2023-02-15T02:41:31;345.25;;;325.27;;
3591;SDS011;1810;48.720;9.094;2023-02-15T02:44:05;337.33;;;317.92;;
3591;SDS011;1810;48.720;9.094;2023-02-15T02:46:41;248.32;;;235.27;;
3591;SDS011;1810;48.720;9.094;2023-02-15T02:49:15;316.33;;;298.52;;
3591;SDS011;1810;48.720;9.094;2023-02-15T02:51:44;298.13;;;281.50;;
3591;SDS011;1810;48.720;9.094;2023-02-15T02:54:12;500.25;;;468.83;;
3591;SDS011;1810;48.720;9.094;2023-02-15T02:56:41;358.38;;;337.40;;
3591;SDS011;1810;48.720;9.094;2023-02-15T02:59:12;345.50;;;325.17;;
3591;SDS011;1810;48.720;9.094;2023-02-15T03:01:43;391.30;;;368.88;;
3591;SDS011;1810;48.720;9.094;2023-02-15T03:04:16;314.08;;;295.33;;
3591;SDS011;1810;48.720;9.094;2023-02-15T03:06:46;231.40;;;219.38;;
3591;SDS011;1810;48.720;9.094;2023-02-15T03:09:18;341.58;;;321.65;;
3591;SDS011;1810;48.720;9.094;2023-02-15T03:12:00;248.20;;;234.98;;
3591;SDS011;1810;48.720;9.094;2023-02-15T03:14:30;391.70;;;367.90;;
3591;SDS011;1810;48.720;9.094;2023-02-15T03:16:58;518.15;;;486.20;;
3591;SDS011;1810;48.720;9.094;2023-02-15T03:19:29;354.58;;;333.90;;
3591;SDS011;1810;48.720;9.094;2023-02-15T03:22:00;253.93;;;240.13;;
3591;SDS011;1810;48.720;9.094;2023-02-15T03:24:35;222.75;;;212.00;;
3591;SDS011;1810;48.720;9.094;2023-02-15T03:27:06;343.90;;;324.08;;
3591;SDS011;1810;48.720;9.094;2023-02-15T03:29:36;444.40;;;417.75;;
3591;SDS011;1810;48.720;9.094;2023-02-15T03:32:07;221.77;;;210.93;;
3591;SDS011;1810;48.720;9.094;2023-02-15T03:34:39;204.80;;;194.65;;
3591;SDS011;1810;48.720;9.094;2023-02-15T03:37:10;223.77;;;212.27;;
3591;SDS011;1810;48.720;9.094;2023-02-15T03:39:42;211.30;;;201.40;;
3591;SDS011;1810;48.720;9.094;2023-02-15T03:42:16;222.70;;;211.93;;
3591;SDS011;1810;48.720;9.094;2023-02-15T03:44:47;206.50;;;196.63;;
3591;SDS011;1810;48.720;9.094;2023-02-15T03:47:19;364.67;;;343.67;;
3591;SDS011;1810;48.720;9.094;2023-02-15T03:49:53;522.58;;;490.35;;
3591;SDS011;1810;48.720;9.094;2023-02-15T03:52:23;209.57;;;199.68;;
3591;SDS011;1810;48.720;9.094;2023-02-15T03:54:52;372.83;;;350.83;;
3591;SDS011;1810;48.720;9.094;2023-02-15T03:57:21;245.98;;;232.73;;
3591;SDS011;1810;48.720;9.094;2023-02-15T04:00:11;257.98;;;244.90;;
3591;SDS011;1810;48.720;9.094;2023-02-15T04:03:06;268.30;;;254.27;;
3591;SDS011;1810;48.720;9.094;2023-02-15T04:05:38;431.00;;;405.10;;
3591;SDS011;1810;48.720;9.094;2023-02-15T04:08:07;327.67;;;308.90;;
3591;SDS011;1810;48.720;9.094;2023-02-15T04:10:36;289.05;;;274.27;;
3591;SDS011;1810;48.720;9.094;2023-02-15T04:13:20;260.05;;;246.40;;
3591;SDS011;1810;48.720;9.094;2023-02-15T04:15:48;283.35;;;268.73;;
3591;SDS011;1810;48.720;9.094;2023-02-15T04:18:33;255.20;;;242.95;;
3591;SDS011;1810;48.720;9.094;2023-02-15T04:21:22;257.45;;;244.82;;
3591;SDS011;1810;48.720;9.094;2023-02-15T04:24:09;233.13;;;222.02;;
3591;SDS011;1810;48.720;9.094;2023-02-15T04:26:57;253.77;;;241.27;;
3591;SDS011;1810;48.720;9.094;2023-02-15T04:29:26;259.95;;;247.05;;
3591;SDS011;1810;48.720;9.094;2023-02-15T04:31:55;262.85;;;249.13;;
3591;SDS011;1810;48.720;9.094;2023-02-15T04:34:25;252.68;;;240.05;;
3591;SDS011;1810;48.720;9.094;2023-02-15T04:36:55;226.07;;;215.23;;
3591;SDS011;1810;48.720;9.094;2023-02-15T04:39:23;238.65;;;226.95;;
3591;SDS011;1810;48.720;9.094;2023-02-15T04:41:52;281.55;;;267.05;;
3591;SDS011;1810;48.720;9.094;2023-02-15T04:44:20;269.20;;;256.08;;
3591;SDS011;1810;48.720;9.094;2023-02-15T04:46:48;295.77;;;279.95;;
3591;SDS011;1810;48.720;9.094;2023-02-15T04:49:17;254.00;;;241.38;;
3591;SDS011;1810;48.720;9.094;2023-02-15T04:51:45;287.60;;;272.08;;
3591;SDS011;1810;48.720;9.094;2023-02-15T04:54:15;238.35;;;226.25;;
3591;SDS011;1810;48.720;9.094;2023-02-15T04:56:43;229.02;;;218.18;;
3591;SDS011;1810;48.720;9.094;2023-02-15T04:59:12;296.52;;;280.55;;
3591;SDS011;1810;48.720;9.094;2023-02-15T05:01:41;229.68;;;218.20;;
3591;SDS011;1810;48.720;9.094;2023-02-15T05:04:10;214.15;;;204.02;;
3591;SDS011;1810;48.720;9.094;2023-02-15T05:06:39;267.33;;;254.27;;
3591;SDS011;1810;48.720;9.094;2023-02-15T05:09:07;241.45;;;229.95;;
3591;SDS011;1810;48.720;9.094;2023-02-15T05:11:40;230.63;;;219.48;;
3591;SDS011;1810;48.720;9.094;2023-02-15T05:14:08;374.17;;;352.45;;
3591;SDS011;1810;48.720;9.094;2023-02-15T05:16:37;274.85;;;260.13;;
3591;SDS011;1810;48.720;9.094;2023-02-15T05:19:05;258.17;;;245.18;;
3591;SDS011;1810;48.720;9.094;2023-02-15T05:21:34;369.65;;;347.98;;
3591;SDS011;1810;48.720;9.094;2023-02-15T05:24:03;242.45;;;229.98;;
3591;SDS011;1810;48.720;9.094;2023-02-15T05:26:57;262.17;;;249.02;;
3591;SDS011;1810;48.720;9.094;2023-02-15T05:30:03;271.60;;;257.65;;
3591;SDS011;1810;48.720;9.094;2023-02-15T05:32:39;265.92;;;252.60;;
3591;SDS011;1810;48.720;9.094;2023-02-15T05:35:14;236.68;;;225.32;;
3591;SDS011;1810;48.720;9.094;2023-02-15T05:37:55;253.43;;;238.10;;
3591;SDS011;1810;48.720;9.094;2023-02-15T05:40:24;244.25;;;231.75;;
3591;SDS011;1810;48.720;9.094;2023-02-15T05:42:54;205.48;;;195.38;;
3591;SDS011;1810;48.720;9.094;2023-02-15T05:45:23;223.90;;;213.10;;
3591;SDS011;1810;48.720;9.094;2023-02-15T05:47:51;214.48;;;204.30;;
3591;SDS011;1810;48.720;9.094;2023-02-15T05:50:19;322.50;;;305.45;;
3591;SDS011;1810;48.720;9.094;2023-02-15T05:52:48;187.52;;;178.77;;
3591;SDS011;1810;48.720;9.094;2023-02-15T05:55:17;210.55;;;200.63;;
3591;SDS011;1810;48.720;9.094;2023-02-15T05:57:46;236.88;;;225.05;;
3591;SDS011;1810;48.720;9.094;2023-02-15T06:00:17;340.30;;;323.08;;
3591;SDS011;1810;48.720;9.094;2023-02-15T06:02:45;412.08;;;382.13;;
3591;SDS011;1810;48.720;9.094;2023-02-15T06:05:14;247.23;;;235.50;;
3591;SDS011;1810;48.720;9.094;2023-02-15T06:07:42;217.32;;;206.70;;
3591;SDS011;1810;48.720;9.094;2023-02-15T06:10:20;348.92;;;330.98;;
3591;SDS011;1810;48.720;9.094;2023-02-15T06:12:48;207.63;;;197.63;;
3591;SDS011;1810;48.720;9.094;2023-02-15T06:15:18;252.45;;;240.40;;
3591;SDS011;1810;48.720;9.094;2023-02-15T06:17:47;171.57;;;163.60;;
3591;SDS011;1810;48.720;9.094;2023-02-15T06:20:15;186.77;;;177.77;;
3591;SDS011;1810;48.720;9.094;2023-02-15T06:22:44;194.32;;;185.25;;
3591;SDS011;1810;48.720;9.094;2023-02-15T06:25:12;206.05;;;195.85;;
3591;SDS011;1810;48.720;9.094;2023-02-15T06:31:46;310.33;;;295.67;;
3591;SDS011;1810;48.720;9.094;2023-02-15T06:35:23;216.68;;;206.27;;
3591;SDS011;1810;48.720;9.094;2023-02-15T06:42:00;418.85;;;394.52;;
3591;SDS011;1810;48.720;9.094;2023-02-15T06:44:34;237.15;;;225.05;;
3591;SDS011;1810;48.720;9.094;2023-02-15T06:47:54;245.18;;;231.85;;
3591;SDS011;1810;48.720;9.094;2023-02-15T06:50:44;343.63;;;324.75;;
3591;SDS011;1810;48.720;9.094;2023-02-15T06:53:39;255.13;;;240.45;;
3591;SDS011;1810;48.720;9.094;2023-02-15T06:56:17;201.57;;;191.27;;
3591;SDS011;1810;48.720;9.094;2023-02-15T06:58:51;353.63;;;332.90;;
3591;SDS011;1810;48.720;9.094;2023-02-15T07:01:26;263.40;;;249.57;;
3591;SDS011;1810;48.720;9.094;2023-02-15T07:04:27;481.80;;;454.08;;
3591;SDS011;1810;48.720;9.094;2023-02-15T07:07:04;191.77;;;182.40;;
3591;SDS011;1810;48.720;9.094;2023-02-15T07:17:02;222.23;;;211.32;;
3591;SDS011;1810;48.720;9.094;2023-02-15T07:19:54;171.23;;;162.70;;
3591;SDS011;1810;48.720;9.094;2023-02-15T07:25:47;179.13;;;170.48;;
3591;SDS011;1810;48.720;9.094;2023-02-15T07:28:48;170.45;;;162.38;;
3591;SDS011;1810;48.720;9.094;2023-02-15T07:31:29;414.17;;;390.20;;
3591;SDS011;1810;48.720;9.094;2023-02-15T07:33:58;238.98;;;225.05;;
3591;SDS011;1810;48.720;9.094;2023-02-15T07:46:13;436.13;;;407.25;;
3591;SDS011;1810;48.720;9.094;2023-02-15T07:48:44;235.65;;;223.15;;
3591;SDS011;1810;48.720;9.094;2023-02-15T07:51:12;176.45;;;167.52;;
3591;SDS011;1810;48.720;9.094;2023-02-15T07:53:42;178.32;;;169.70;;
3591;SDS011;1810;48.720;9.094;2023-02-15T08:06:15;242.20;;;229.23;;
3591;SDS011;1810;48.720;9.094;2023-02-15T08:08:43;178.77;;;169.75;;
3591;SDS011;1810;48.720;9.094;2023-02-15T08:11:23;270.75;;;256.58;;
3591;SDS011;1810;48.720;9.094;2023-02-15T08:14:43;409.67;;;387.08;;
3591;SDS011;1810;48.720;9.094;2023-02-15T08:17:27;227.63;;;215.68;;
3591;SDS011;1810;48.720;9.094;2023-02-15T08:19:57;379.08;;;357.77;;
3591;SDS011;1810;48.720;9.094;2023-02-15T08:22:33;408.27;;;386.15;;
3591;SDS011;1810;48.720;9.094;2023-02-15T08:25:14;247.85;;;235.98;;
3591;SDS011;1810;48.720;9.094;2023-02-15T08:31:10;377.70;;;357.02;;
3591;SDS011;1810;48.720;9.094;2023-02-15T08:33:41;291.83;;;276.40;;
3591;SDS011;1810;48.720;9.094;2023-02-15T08:39:31;414.73;;;386.83;;
3591;SDS011;1810;48.720;9.094;2023-02-15T08:42:16;545.30;;;514.50;;
3591;SDS011;1810;48.720;9.094;2023-02-15T08:45:04;425.48;;;402.95;;
3591;SDS011;1810;48.720;9.094;2023-02-15T08:47:39;431.15;;;408.42;;
3591;SDS011;1810;48.720;9.094;2023-02-15T08:50:28;429.05;;;406.73;;
3591;SDS011;1810;48.720;9.094;2023-02-15T08:53:09;436.88;;;414.55;;
3591;SDS011;1810;48.720;9.094;2023-02-15T08:55:42;414.50;;;393.35;;
3591;SDS011;1810;48.720;9.094;2023-02-15T08:58:18;442.13;;;418.98;;
3591;SDS011;1810;48.720;9.094;2023-02-15T09:00:52;451.07;;;422.67;;
3591;SDS011;1810;48.720;9.094;2023-02-15T09:03:28;503.40;;;475.60;;
3591;SDS011;1810;48.720;9.094;2023-02-15T09:06:39;424.02;;;402.55;;
3591;SDS011;1810;48.720;9.094;2023-02-15T09:09:28;542.20;;;510.98;;
3591;SDS011;1810;48.720;9.094;2023-02-15T09:12:01;378.13;;;358.63;;
3591;SDS011;1810;48.720;9.094;2023-02-15T09:14:33;399.58;;;380.10;;
3591;SDS011;1810;48.720;9.094;2023-02-15T09:17:03;431.67;;;407.20;;
3591;SDS011;1810;48.720;9.094;2023-02-15T09:19:32;444.00;;;418.75;;
3591;SDS011;1810;48.720;9.094;2023-02-15T09:22:01;420.45;;;398.90;;
3591;SDS011;1810;48.720;9.094;2023-02-15T09:24:32;467.15;;;443.10;;
3591;SDS011;1810;48.720;9.094;2023-02-15T09:27:01;404.35;;;384.50;;
3591;SDS011;1810;48.720;9.094;2023-02-15T09:29:29;347.80;;;331.88;;
3591;SDS011;1810;48.720;9.094;2023-02-15T09:31:58;404.40;;;384.85;;
3591;SDS011;1810;48.720;9.094;2023-02-15T09:34:26;409.13;;;389.02;;
3591;SDS011;1810;48.720;9.094;2023-02-15T09:36:55;362.80;;;345.83;;
3591;SDS011;1810;48.720;9.094;2023-02-15T09:39:24;374.75;;;356.13;;
3591;SDS011;1810;48.720;9.094;2023-02-15T09:47:57;513.90;;;485.35;;
3591;SDS011;1810;48.720;9.094;2023-02-15T09:50:33;441.83;;;419.45;;
3591;SDS011;1810;48.720;9.094;2023-02-15T09:53:12;440.10;;;418.33;;
3591;SDS011;1810;48.720;9.094;2023-02-15T09:55:53;518.65;;;490.30;;
3591;SDS011;1810;48.720;9.094;2023-02-15T09:58:30;419.35;;;398.92;;
3591;SDS011;1810;48.720;9.094;2023-02-15T10:01:07;445.27;;;423.27;;
3591;SDS011;1810;48.720;9.094;2023-02-15T10:03:42;373.77;;;356.20;;
3591;SDS011;1810;48.720;9.094;2023-02-15T10:09:24;378.75;;;360.73;;
3591;SDS011;1810;48.720;9.094;2023-02-15T10:14:35;441.17;;;419.23;;
3591;SDS011;1810;48.720;9.094;2023-02-15T10:17:14;340.48;;;324.90;;
3591;SDS011;1810;48.720;9.094;2023-02-15T10:19:51;355.60;;;339.63;;
3591;SDS011;1810;48.720;9.094;2023-02-15T10:22:27;395.80;;;376.95;;
3591;SDS011;1810;48.720;9.094;2023-02-15T10:27:57;340.25;;;324.45;;
3591;SDS011;1810;48.720;9.094;2023-02-15T10:30:34;350.25;;;333.70;;
3591;SDS011;1810;48.720;9.094;2023-02-15T10:33:09;271.08;;;259.48;;
3591;SDS011;1810;48.720;9.094;2023-02-15T10:35:43;387.38;;;368.40;;
3591;SDS011;1810;48.720;9.094;2023-02-15T10:38:23;285.63;;;273.23;;
3591;SDS011;1810;48.720;9.094;2023-02-15T10:41:07;343.20;;;326.98;;
3591;SDS011;1810;48.720;9.094;2023-02-15T10:43:57;411.58;;;389.88;;
3591;SDS011;1810;48.720;9.094;2023-02-15T10:46:42;302.65;;;288.30;;
3591;SDS011;1810;48.720;9.094;2023-02-15T10:49:37;321.30;;;306.75;;
3591;SDS011;1810;48.720;9.094;2023-02-15T10:52:16;222.73;;;213.02;;
3591;SDS011;1810;48.720;9.094;2023-02-15T10:54:53;228.10;;;217.93;;
3591;SDS011;1810;48.720;9.094;2023-02-15T10:57:30;204.95;;;196.13;;
3591;SDS011;1810;48.720;9.094;2023-02-15T11:00:07;276.77;;;263.67;;
3591;SDS011;1810;48.720;9.094;2023-02-15T11:02:57;227.52;;;217.68;;
3591;SDS011;1810;48.720;9.094;2023-02-15T11:05:53;213.52;;;204.50;;
3591;SDS011;1810;48.720;9.094;2023-02-15T11:08:29;213.80;;;204.52;;
3591;SDS011;1810;48.720;9.094;2023-02-15T11:11:01;183.30;;;175.55;;
3591;SDS011;1810;48.720;9.094;2023-02-15T11:13:33;179.15;;;171.75;;
3591;SDS011;1810;48.720;9.094;2023-02-15T11:16:05;253.85;;;242.20;;
3591;SDS011;1810;48.720;9.094;2023-02-15T11:18:37;142.30;;;135.88;;
3591;SDS011;1810;48.720;9.094;2023-02-15T11:21:10;141.35;;;135.20;;
3591;SDS011;1810;48.720;9.094;2023-02-15T11:23:44;162.65;;;155.38;;
3591;SDS011;1810;48.720;9.094;2023-02-15T11:26:14;143.73;;;137.43;;
3591;SDS011;1810;48.720;9.094;2023-02-15T11:28:45;138.30;;;132.20;;
3591;SDS011;1810;48.720;9.094;2023-02-15T11:31:16;130.40;;;124.40;;
3591;SDS011;1810;48.720;9.094;2023-02-15T11:33:47;218.35;;;208.40;;
3591;SDS011;1810;48.720;9.094;2023-02-15T11:36:22;125.88;;;120.10;;
3591;SDS011;1810;48.720;9.094;2023-02-15T11:38:56;152.00;;;144.88;;
3591;SDS011;1810;48.720;9.094;2023-02-15T11:41:27;133.93;;;127.97;;
3591;SDS011;1810;48.720;9.094;2023-02-15T11:43:58;161.05;;;153.32;;
3591;SDS011;1810;48.720;9.094;2023-02-15T11:46:30;116.32;;;111.15;;
3591;SDS011;1810;48.720;9.094;2023-02-15T11:49:01;109.78;;;104.85;;
3591;SDS011;1810;48.720;9.094;2023-02-15T11:51:40;98.03;;;93.28;;
3591;SDS011;1810;48.720;9.094;2023-02-15T11:54:24;103.40;;;98.53;;
3591;SDS011;1810;48.720;9.094;2023-02-15T11:56:59;125.75;;;119.85;;
3591;SDS011;1810;48.720;9.094;2023-02-15T11:59:31;279.27;;;265.08;;
3591;SDS011;1810;48.720;9.094;2023-02-15T12:02:06;385.15;;;364.67;;
3591;SDS011;1810;48.720;9.094;2023-02-15T12:04:44;194.40;;;185.70;;
3591;SDS011;1810;48.720;9.094;2023-02-15T12:07:17;176.23;;;168.65;;
3591;SDS011;1810;48.720;9.094;2023-02-15T12:09:50;205.55;;;196.10;;
3591;SDS011;1810;48.720;9.094;2023-02-15T12:12:24;117.40;;;111.93;;
3591;SDS011;1810;48.720;9.094;2023-02-15T12:14:54;138.82;;;132.35;;
3591;SDS011;1810;48.720;9.094;2023-02-15T12:17:24;141.15;;;134.52;;
3591;SDS011;1810;48.720;9.094;2023-02-15T12:20:02;110.65;;;105.45;;
3591;SDS011;1810;48.720;9.094;2023-02-15T12:22:49;111.95;;;106.88;;
3591;SDS011;1810;48.720;9.094;2023-02-15T12:29:07;118.68;;;113.18;;
3591;SDS011;1810;48.720;9.094;2023-02-15T12:31:43;98.60;;;94.13;;
3591;SDS011;1810;48.720;9.094;2023-02-15T12:36:45;94.10;;;89.80;;
3591;SDS011;1810;48.720;9.094;2023-02-15T12:39:24;281.67;;;265.85;;
3591;SDS011;1810;48.720;9.094;2023-02-15T12:42:40;108.47;;;102.90;;
3591;SDS011;1810;48.720;9.094;2023-02-15T12:45:53;114.63;;;109.30;;
3591;SDS011;1810;48.720;9.094;2023-02-15T12:49:07;113.10;;;107.50;;
3591;SDS011;1810;48.720;9.094;2023-02-15T12:51:50;110.68;;;105.47;;
3591;SDS011;1810;48.720;9.094;2023-02-15T12:57:34;124.80;;;119.15;;
3591;SDS011;1810;48.720;9.094;2023-02-15T13:00:28;115.10;;;109.47;;
3591;SDS011;1810;48.720;9.094;2023-02-15T13:03:15;113.93;;;108.28;;
3591;SDS011;1810;48.720;9.094;2023-02-15T13:52:27;160.02;;;151.88;;
3591;SDS011;1810;48.720;9.094;2023-02-15T13:55:40;144.05;;;137.77;;
3591;SDS011;1810;48.720;9.094;2023-02-15T14:01:30;104.32;;;99.32;;
3591;SDS011;1810;48.720;9.094;2023-02-15T14:07:56;103.55;;;98.43;;
3591;SDS011;1810;48.720;9.094;2023-02-15T14:10:49;106.30;;;101.22;;
3591;SDS011;1810;48.720;9.094;2023-02-15T14:13:38;99.88;;;95.25;;
3591;SDS011;1810;48.720;9.094;2023-02-15T14:16:26;254.10;;;241.32;;
3591;SDS011;1810;48.720;9.094;2023-02-15T14:19:04;90.40;;;85.90;;
3591;SDS011;1810;48.720;9.094;2023-02-15T14:21:55;102.22;;;97.03;;
3591;SDS011;1810;48.720;9.094;2023-02-15T14:25:04;101.80;;;97.13;;
3591;SDS011;1810;48.720;9.094;2023-02-15T14:28:05;105.60;;;100.85;;
3591;SDS011;1810;48.720;9.094;2023-02-15T14:30:54;246.60;;;234.57;;
3591;SDS011;1810;48.720;9.094;2023-02-15T14:33:38;106.45;;;101.70;;
3591;SDS011;1810;48.720;9.094;2023-02-15T14:36:10;95.72;;;90.90;;
3591;SDS011;1810;48.720;9.094;2023-02-15T14:38:48;121.28;;;115.90;;
3591;SDS011;1810;48.720;9.094;2023-02-15T14:41:26;95.00;;;90.50;;
3591;SDS011;1810;48.720;9.094;2023-02-15T14:44:00;91.53;;;86.88;;
3591;SDS011;1810;48.720;9.094;2023-02-15T14:46:34;109.25;;;103.78;;
3591;SDS011;1810;48.720;9.094;2023-02-15T14:49:08;184.75;;;175.95;;
3591;SDS011;1810;48.720;9.094;2023-02-15T14:51:54;146.30;;;139.75;;
3591;SDS011;1810;48.720;9.094;2023-02-15T14:57:29;115.07;;;110.05;;
3591;SDS011;1810;48.720;9.094;2023-02-15T15:03:00;101.63;;;96.72;;
3591;SDS011;1810;48.720;9.094;2023-02-15T15:05:31;110.28;;;104.97;;
3591;SDS011;1810;48.720;9.094;2023-02-15T15:08:01;152.52;;;145.32;;
3591;SDS011;1810;48.720;9.094;2023-02-15T15:10:45;105.43;;;100.47;;
3591;SDS011;1810;48.720;9.094;2023-02-15T15:19:10;107.65;;;102.32;;
3591;SDS011;1810;48.720;9.094;2023-02-15T15:21:52;241.18;;;229.57;;
3591;SDS011;1810;48.720;9.094;2023-02-15T15:24:46;88.03;;;83.85;;
3591;SDS011;1810;48.720;9.094;2023-02-15T15:33:45;211.00;;;201.13;;
3591;SDS011;1810;48.720;9.094;2023-02-15T15:43:19;128.55;;;122.88;;
3591;SDS011;1810;48.720;9.094;2023-02-15T15:49:08;132.73;;;126.82;;
3591;SDS011;1810;48.720;9.094;2023-02-15T15:51:40;155.88;;;149.00;;
3591;SDS011;1810;48.720;9.094;2023-02-15T15:54:12;105.90;;;101.03;;
3591;SDS011;1810;48.720;9.094;2023-02-15T15:56:43;370.50;;;350.75;;
3591;SDS011;1810;48.720;9.094;2023-02-15T15:59:16;121.00;;;115.50;;
3591;SDS011;1810;48.720;9.094;2023-02-15T16:01:46;118.18;;;112.55;;
3591;SDS011;1810;48.720;9.094;2023-02-15T16:04:23;166.32;;;159.02;;
3591;SDS011;1810;48.720;9.094;2023-02-15T16:06:53;105.50;;;100.85;;
3591;SDS011;1810;48.720;9.094;2023-02-15T16:09:22;139.02;;;132.73;;
3591;SDS011;1810;48.720;9.094;2023-02-15T16:11:52;112.57;;;107.18;;
3591;SDS011;1810;48.720;9.094;2023-02-15T16:14:25;113.13;;;107.75;;
3591;SDS011;1810;48.720;9.094;2023-02-15T16:16:57;106.15;;;101.43;;
3591;SDS011;1810;48.720;9.094;2023-02-15T16:19:32;118.50;;;113.10;;
3591;SDS011;1810;48.720;9.094;2023-02-15T16:22:01;107.30;;;102.37;;
3591;SDS011;1810;48.720;9.094;2023-02-15T16:24:37;120.82;;;115.43;;
3591;SDS011;1810;48.720;9.094;2023-02-15T16:30:20;169.82;;;162.38;;
3591;SDS011;1810;48.720;9.094;2023-02-15T16:32:52;129.60;;;123.45;;
3591;SDS011;1810;48.720;9.094;2023-02-15T16:35:23;125.82;;;120.38;;
3591;SDS011;1810;48.720;9.094;2023-02-15T16:37:52;121.82;;;116.43;;
3591;SDS011;1810;48.720;9.094;2023-02-15T16:40:28;218.52;;;207.45;;
3591;SDS011;1810;48.720;9.094;2023-02-15T16:43:14;126.13;;;120.65;;
3591;SDS011;1810;48.720;9.094;2023-02-15T16:45:45;142.68;;;136.45;;
3591;SDS011;1810;48.720;9.094;2023-02-15T16:48:16;212.68;;;203.00;;
3591;SDS011;1810;48.720;9.094;2023-02-15T16:53:33;138.57;;;132.48;;
3591;SDS011;1810;48.720;9.094;2023-02-15T16:56:02;148.23;;;141.50;;
3591;SDS011;1810;48.720;9.094;2023-02-15T16:58:35;359.20;;;341.13;;
3591;SDS011;1810;48.720;9.094;2023-02-15T17:01:06;157.63;;;150.60;;
3591;SDS011;1810;48.720;9.094;2023-02-15T17:03:35;172.80;;;165.18;;
3591;SDS011;1810;48.720;9.094;2023-02-15T17:06:16;204.10;;;195.05;;
3591;SDS011;1810;48.720;9.094;2023-02-15T17:08:47;180.93;;;172.63;;
3591;SDS011;1810;48.720;9.094;2023-02-15T17:11:16;212.73;;;202.85;;
3591;SDS011;1810;48.720;9.094;2023-02-15T17:19:13;302.98;;;287.30;;
3591;SDS011;1810;48.720;9.094;2023-02-15T17:25:26;155.23;;;148.43;;
3591;SDS011;1810;48.720;9.094;2023-02-15T17:31:33;245.13;;;234.15;;
3591;SDS011;1810;48.720;9.094;2023-02-15T17:42:05;177.27;;;169.70;;
3591;SDS011;1810;48.720;9.094;2023-02-15T17:44:37;169.85;;;162.70;;
3591;SDS011;1810;48.720;9.094;2023-02-15T17:47:08;241.73;;;231.23;;
3591;SDS011;1810;48.720;9.094;2023-02-15T17:49:37;205.52;;;196.43;;
3591;SDS011;1810;48.720;9.094;2023-02-15T17:52:15;223.30;;;213.85;;
3591;SDS011;1810;48.720;9.094;2023-02-15T17:54:48;193.38;;;185.05;;
3591;SDS011;1810;48.720;9.094;2023-02-15T17:57:35;230.57;;;220.85;;
3591;SDS011;1810;48.720;9.094;2023-02-15T18:00:04;158.73;;;151.80;;
3591;SDS011;1810;48.720;9.094;2023-02-15T18:02:51;161.30;;;153.70;;
3591;SDS011;1810;48.720;9.094;2023-02-15T18:05:38;251.80;;;240.95;;
3591;SDS011;1810;48.720;9.094;2023-02-15T18:08:25;241.05;;;230.57;;
3591;SDS011;1810;48.720;9.094;2023-02-15T18:11:12;244.80;;;234.07;;
3591;SDS011;1810;48.720;9.094;2023-02-15T18:14:00;249.02;;;237.88;;